createdAt,value
2022-09-13T00:00:51.788Z,4.28
2022-09-13T00:03:20.707Z,3.97
2022-09-13T00:05:49.764Z,4.30
2022-09-13T00:08:19.139Z,4.00
2022-09-13T00:10:47.578Z,4.07
2022-09-13T00:13:18.929Z,4.28
2022-09-13T00:15:49.490Z,3.90
2022-09-13T00:18:19.491Z,4.18
2022-09-13T00:20:47.780Z,3.90
2022-09-13T00:23:15.950Z,4.55
2022-09-13T00:25:44.206Z,4.32
2022-09-13T00:28:12.434Z,3.50
2022-09-13T00:30:42.120Z,4.30
2022-09-13T00:33:10.271Z,4.38
2022-09-13T00:35:40.295Z,3.90
2022-09-13T00:38:08.403Z,4.13
2022-09-13T00:40:39.113Z,3.65
2022-09-13T00:43:13.748Z,4.03
2022-09-13T00:45:43.577Z,3.95
2022-09-13T00:48:20.136Z,4.20
2022-09-13T00:50:52.850Z,4.40
2022-09-13T00:53:25.195Z,4.88
2022-09-13T00:55:57.673Z,4.77
2022-09-13T00:58:29.308Z,4.57
2022-09-13T01:01:00.035Z,4.35
2022-09-13T01:03:29.979Z,4.75
2022-09-13T01:06:03.094Z,4.65
2022-09-13T01:08:32.950Z,4.13
2022-09-13T01:11:04.272Z,5.10
2022-09-13T01:13:34.073Z,4.32
2022-09-13T01:16:03.789Z,4.47
2022-09-13T01:18:32.387Z,4.45
2022-09-13T01:21:25.770Z,4.15
2022-09-13T01:24:23.359Z,4.13
2022-09-13T01:27:20.736Z,3.97
2022-09-13T01:30:21.728Z,4.25
2022-09-13T01:33:08.744Z,3.55
2022-09-13T01:35:48.036Z,4.07
2022-09-13T01:38:33.467Z,4.13
2022-09-13T01:41:10.459Z,4.05
2022-09-13T01:43:50.865Z,4.60
2022-09-13T01:46:26.632Z,4.47
2022-09-13T01:49:00.386Z,4.18
2022-09-13T01:51:33.942Z,4.00
2022-09-13T01:54:21.865Z,4.60
2022-09-13T01:56:57.114Z,4.47
2022-09-13T01:59:34.812Z,4.38
2022-09-13T02:02:09.232Z,4.32
2022-09-13T02:04:41.518Z,4.00
2022-09-13T02:07:14.331Z,4.38
2022-09-13T02:09:47.702Z,4.78
2022-09-13T02:14:51.791Z,3.58
2022-09-13T02:17:25.278Z,4.50
2022-09-13T02:19:56.418Z,4.10
2022-09-13T02:22:29.870Z,4.72
2022-09-13T02:25:02.715Z,4.45
2022-09-13T02:27:35.154Z,4.65
2022-09-13T02:30:06.294Z,4.70
2022-09-13T02:32:40.343Z,3.88
2022-09-13T02:35:13.508Z,4.10
2022-09-13T02:37:46.107Z,4.70
2022-09-13T02:40:23.475Z,5.00
2022-09-13T02:42:56.954Z,4.68
2022-09-13T02:45:33.121Z,4.82
2022-09-13T02:48:10.519Z,4.55
2022-09-13T02:50:48.713Z,4.40
2022-09-13T02:53:27.377Z,4.60
2022-09-13T02:56:01.635Z,4.32
2022-09-13T02:58:36.337Z,4.47
2022-09-13T03:01:04.966Z,4.65
2022-09-13T03:03:34.583Z,4.85
2022-09-13T03:06:02.976Z,4.60
2022-09-13T03:08:31.794Z,4.32
2022-09-13T03:11:12.366Z,4.38
2022-09-13T03:14:08.481Z,4.25
2022-09-13T03:16:51.166Z,4.45
2022-09-13T03:19:31.509Z,4.27
2022-09-13T03:22:17.967Z,4.90
2022-09-13T03:24:56.496Z,5.07
2022-09-13T03:27:35.825Z,4.60
2022-09-13T03:30:07.251Z,4.45
2022-09-13T03:32:42.748Z,4.68
2022-09-13T03:35:21.404Z,5.18
2022-09-13T03:37:58.522Z,5.25
2022-09-13T03:40:36.875Z,6.00
2022-09-13T03:43:09.594Z,6.13
2022-09-13T03:45:44.456Z,5.88
2022-09-13T03:48:13.966Z,5.55
2022-09-13T03:50:44.208Z,4.88
2022-09-13T03:53:14.502Z,5.50
2022-09-13T03:55:44.504Z,5.70
2022-09-13T03:58:14.631Z,5.65
2022-09-13T04:00:43.235Z,5.38
2022-09-13T04:03:11.319Z,4.97
2022-09-13T04:05:39.546Z,5.90
2022-09-13T04:08:09.913Z,5.30
2022-09-13T04:10:38.687Z,5.57
2022-09-13T04:13:06.988Z,4.93
2022-09-13T04:15:35.131Z,5.82
2022-09-13T04:18:03.309Z,5.40
2022-09-13T04:20:31.411Z,5.82
2022-09-13T04:22:59.479Z,5.07
2022-09-13T04:25:29.198Z,5.60
2022-09-13T04:28:00.112Z,5.22
2022-09-13T04:30:28.696Z,5.55
2022-09-13T04:32:59.567Z,5.22
2022-09-13T04:35:29.045Z,5.55
2022-09-13T04:37:58.188Z,5.00
2022-09-13T04:40:26.633Z,4.90
2022-09-13T04:42:56.187Z,4.78
2022-09-13T04:45:24.564Z,4.82
2022-09-13T04:47:53.872Z,5.32
2022-09-13T04:50:22.226Z,5.20
2022-09-13T04:52:50.423Z,5.32
2022-09-13T04:55:18.711Z,5.15
2022-09-13T04:57:47.040Z,4.80
2022-09-13T05:00:17.032Z,4.32
2022-09-13T05:02:45.199Z,4.90
2022-09-13T05:05:13.336Z,4.97
2022-09-13T05:07:41.428Z,4.95
2022-09-13T05:10:10.452Z,5.10
2022-09-13T05:12:38.626Z,5.13
2022-09-13T05:15:07.942Z,4.90
2022-09-13T05:17:37.427Z,5.57
2022-09-13T05:20:06.978Z,5.18
2022-09-13T05:22:35.220Z,4.80
2022-09-13T05:25:03.391Z,5.00
2022-09-13T05:27:31.478Z,4.63
2022-09-13T05:29:59.758Z,5.15
2022-09-13T05:32:27.962Z,4.75
2022-09-13T05:34:57.573Z,5.10
2022-09-13T05:37:25.795Z,5.07
2022-09-13T05:40:10.670Z,4.80
2022-09-13T05:42:39.919Z,5.18
2022-09-13T05:45:09.417Z,4.97
2022-09-13T05:47:37.666Z,5.45
2022-09-13T05:50:11.099Z,5.03
2022-09-13T05:52:41.765Z,5.38
2022-09-13T05:55:10.978Z,5.53
2022-09-13T05:57:39.500Z,5.53
2022-09-13T06:00:08.892Z,5.47
2022-09-13T06:02:36.994Z,5.57
2022-09-13T06:05:07.304Z,5.05
2022-09-13T06:07:35.412Z,5.32
2022-09-13T06:10:04.026Z,5.15
2022-09-13T06:12:32.278Z,5.78
2022-09-13T06:15:00.389Z,5.70
2022-09-13T06:17:28.508Z,6.55
2022-09-13T06:19:57.190Z,5.85
2022-09-13T06:22:33.044Z,6.78
2022-09-13T06:25:01.244Z,5.93
2022-09-13T06:27:31.356Z,5.25
2022-09-13T06:29:59.455Z,5.28
2022-09-13T06:32:27.738Z,6.38
2022-09-13T06:34:55.888Z,6.75
2022-09-13T06:37:24.118Z,6.47
2022-09-13T06:39:53.696Z,6.55
2022-09-13T06:42:21.850Z,5.80
2022-09-13T06:44:50.021Z,5.95
2022-09-13T06:47:18.168Z,6.28
2022-09-13T06:49:46.493Z,6.20
2022-09-13T06:52:14.641Z,6.03
2022-09-13T06:54:43.661Z,6.30
2022-09-13T06:57:13.455Z,6.35
2022-09-13T06:59:41.778Z,6.07
2022-09-13T07:02:11.289Z,5.75
2022-09-13T07:04:39.441Z,5.65
2022-09-13T07:07:07.576Z,6.13
2022-09-13T07:09:35.752Z,6.13
2022-09-13T07:12:06.401Z,6.05
2022-09-13T07:14:35.880Z,5.70
2022-09-13T07:17:04.733Z,5.95
2022-09-13T07:19:32.888Z,4.95
2022-09-13T07:22:01.253Z,5.45
2022-09-13T07:24:29.408Z,5.25
2022-09-13T07:26:57.619Z,5.65
2022-09-13T07:29:25.954Z,6.05
2022-09-13T07:31:56.857Z,5.00
2022-09-13T07:34:26.307Z,6.03
2022-09-13T07:36:55.120Z,5.53
2022-09-13T07:39:24.305Z,5.65
2022-09-13T07:41:53.818Z,5.88
2022-09-13T07:44:22.811Z,5.90
2022-09-13T07:46:51.021Z,5.65
2022-09-13T07:49:21.075Z,5.85
2022-09-13T07:51:51.474Z,6.00
2022-09-13T07:54:20.591Z,6.63
2022-09-13T07:56:50.336Z,6.25
2022-09-13T07:59:19.580Z,6.00
2022-09-13T08:01:49.422Z,6.60
2022-09-13T08:04:32.351Z,6.97
2022-09-13T08:07:02.658Z,6.22
2022-09-13T08:09:30.888Z,5.78
2022-09-13T08:11:58.948Z,5.55
2022-09-13T08:14:27.287Z,5.90
2022-09-13T08:16:57.588Z,6.13
2022-09-13T08:19:27.334Z,6.32
2022-09-13T08:21:55.435Z,5.75
2022-09-13T08:24:23.918Z,5.38
2022-09-13T08:26:52.994Z,5.78
2022-09-13T08:29:21.224Z,5.63
2022-09-13T08:31:49.405Z,5.25
2022-09-13T08:34:18.446Z,5.75
2022-09-13T08:36:47.984Z,5.57
2022-09-13T08:39:16.078Z,5.45
2022-09-13T08:42:18.619Z,5.32
2022-09-13T08:44:49.075Z,5.05
2022-09-13T08:47:32.160Z,5.60
2022-09-13T08:50:14.374Z,5.28
2022-09-13T08:52:56.203Z,4.60
2022-09-13T08:55:34.346Z,5.30
2022-09-13T08:58:12.575Z,5.25
2022-09-13T09:00:45.135Z,5.20
2022-09-13T09:03:25.609Z,5.82
2022-09-13T09:05:54.590Z,5.05
2022-09-13T09:08:33.959Z,5.47
2022-09-13T09:11:08.703Z,5.18
2022-09-13T09:13:40.435Z,5.38
2022-09-13T09:16:21.150Z,5.10
2022-09-13T09:18:50.905Z,4.90
2022-09-13T09:21:20.364Z,5.00
2022-09-13T09:23:52.413Z,5.20
2022-09-13T09:26:22.670Z,5.10
2022-09-13T09:28:52.289Z,5.40
2022-09-13T09:31:32.311Z,5.00
2022-09-13T09:34:13.962Z,5.05
2022-09-13T09:36:46.256Z,4.75
2022-09-13T09:39:16.585Z,4.60
2022-09-13T09:41:45.391Z,5.30
2022-09-13T09:44:20.326Z,4.40
2022-09-13T09:46:53.082Z,3.83
2022-09-13T09:49:44.891Z,4.30
2022-09-13T09:52:16.862Z,4.05
2022-09-13T09:54:46.694Z,4.65
2022-09-13T09:57:15.289Z,3.92
2022-09-13T09:59:43.647Z,4.45
2022-09-13T10:02:20.901Z,4.10
2022-09-13T10:04:57.935Z,3.95
2022-09-13T10:07:30.974Z,4.13
2022-09-13T10:12:36.786Z,3.78
2022-09-13T10:15:18.013Z,4.43
2022-09-13T10:18:03.061Z,5.05
2022-09-13T10:20:31.653Z,4.53
2022-09-13T10:23:18.720Z,4.32
2022-09-13T10:26:03.057Z,4.53
2022-09-13T10:28:34.975Z,4.57
2022-09-13T10:31:06.392Z,4.85
2022-09-13T10:33:37.401Z,4.10
2022-09-13T10:36:09.319Z,4.18
2022-09-13T10:38:45.413Z,4.97
2022-09-13T10:41:25.326Z,4.55
2022-09-13T10:43:58.998Z,4.70
2022-09-13T10:46:29.283Z,4.25
2022-09-13T10:48:57.666Z,4.47
2022-09-13T10:51:38.059Z,4.18
2022-09-13T10:54:16.614Z,4.07
2022-09-13T10:56:46.499Z,4.03
2022-09-13T10:59:23.438Z,3.88
2022-09-13T11:02:27.252Z,3.70
2022-09-13T11:05:22.112Z,3.00
2022-09-13T11:08:12.849Z,3.00
2022-09-13T11:10:51.827Z,3.25
2022-09-13T11:13:30.173Z,3.08
2022-09-13T11:16:07.642Z,3.85
2022-09-13T11:19:00.892Z,3.38
2022-09-13T11:21:41.492Z,3.97
2022-09-13T11:24:25.131Z,4.18
2022-09-13T11:27:01.825Z,3.80
2022-09-13T11:29:51.714Z,4.15
2022-09-13T11:32:34.807Z,4.03
2022-09-13T11:35:18.948Z,4.57
2022-09-13T11:37:56.258Z,4.03
2022-09-13T11:40:46.198Z,4.32
2022-09-13T11:43:36.234Z,4.57
2022-09-13T11:46:16.612Z,4.05
2022-09-13T11:49:05.392Z,4.25
2022-09-13T11:51:48.926Z,4.03
2022-09-13T11:54:28.610Z,5.35
2022-09-13T11:57:00.668Z,4.85
2022-09-13T11:59:40.059Z,5.55
2022-09-13T12:02:21.161Z,5.95
2022-09-13T12:05:18.433Z,5.53
2022-09-13T12:07:47.889Z,5.20
2022-09-13T12:10:19.306Z,5.35
2022-09-13T12:12:51.960Z,6.13
2022-09-13T12:15:25.169Z,5.30
2022-09-13T12:17:59.476Z,5.55
2022-09-13T12:20:34.268Z,4.72
2022-09-13T12:23:05.975Z,4.60
2022-09-13T12:25:40.421Z,4.40
2022-09-13T12:28:17.845Z,5.25
2022-09-13T12:30:52.955Z,4.78
2022-09-13T12:33:23.059Z,4.78
2022-09-13T12:36:03.828Z,5.25
2022-09-13T12:39:11.943Z,5.05
2022-09-13T12:41:52.194Z,5.05
2022-09-13T12:44:47.894Z,5.20
2022-09-13T12:47:52.040Z,5.07
2022-09-13T12:50:51.317Z,4.70
2022-09-13T12:53:37.556Z,4.97
2022-09-13T12:56:25.251Z,4.63
2022-09-13T12:59:23.192Z,4.72
2022-09-13T13:01:52.789Z,5.00
2022-09-13T13:04:24.842Z,5.18
2022-09-13T13:06:57.658Z,5.03
2022-09-13T13:09:35.249Z,4.25
2022-09-13T13:12:04.373Z,3.72
2022-09-13T13:14:53.252Z,3.65
2022-09-13T13:17:41.456Z,3.47
2022-09-13T13:20:46.161Z,3.53
2022-09-13T13:23:25.324Z,3.13
2022-09-13T13:26:00.968Z,3.10
2022-09-13T13:28:52.869Z,2.53
2022-09-13T13:31:37.083Z,2.90
2022-09-13T13:34:42.984Z,2.65
2022-09-13T13:37:32.392Z,2.55
2022-09-13T13:40:30.527Z,2.60
2022-09-13T13:43:29.555Z,2.70
2022-09-13T13:46:30.224Z,2.67
2022-09-13T13:49:33.129Z,2.13
2022-09-13T13:52:37.562Z,2.50
2022-09-13T13:55:33.581Z,2.40
2022-09-13T13:58:04.734Z,2.35
2022-09-13T14:00:36.484Z,2.28
2022-09-13T14:03:19.876Z,2.13
2022-09-13T14:05:55.631Z,1.83
2022-09-13T14:08:53.317Z,1.77
2022-09-13T14:11:34.354Z,1.60
2022-09-13T14:14:23.334Z,1.60
2022-09-13T14:17:19.859Z,1.30
2022-09-13T14:19:50.515Z,1.58
2022-09-13T14:22:22.378Z,1.45
2022-09-13T14:24:51.708Z,1.67
2022-09-13T14:27:24.180Z,1.63
2022-09-13T14:29:54.442Z,1.60
2022-09-13T14:32:25.298Z,0.82
2022-09-13T14:34:57.178Z,1.52
2022-09-13T14:37:29.771Z,1.60
2022-09-13T14:40:00.478Z,1.60
2022-09-13T14:42:40.055Z,1.60
2022-09-13T14:45:13.334Z,1.90
2022-09-13T14:47:51.812Z,1.52
2022-09-13T14:50:25.127Z,1.70
2022-09-13T14:52:56.002Z,1.30
2022-09-13T14:55:29.255Z,1.75
2022-09-13T14:58:04.380Z,1.60
2022-09-13T15:00:36.824Z,2.28
2022-09-13T15:03:12.251Z,1.75
2022-09-13T15:05:41.437Z,1.80
2022-09-13T15:08:29.279Z,1.60
2022-09-13T15:10:59.358Z,1.73
2022-09-13T15:13:29.021Z,1.52
2022-09-13T15:15:57.651Z,1.40
2022-09-13T15:18:27.446Z,1.50
2022-09-13T15:20:58.250Z,1.40
2022-09-13T15:23:29.282Z,1.55
2022-09-13T15:26:00.323Z,1.30
2022-09-13T15:28:32.887Z,1.30
2022-09-13T15:31:02.398Z,1.70
2022-09-13T15:33:34.074Z,1.55
2022-09-13T15:36:28.124Z,2.03
2022-09-13T15:39:05.493Z,1.70
2022-09-13T15:41:35.140Z,1.45
2022-09-13T15:44:06.969Z,1.85
2022-09-13T15:46:49.189Z,1.45
2022-09-13T15:49:20.623Z,1.33
2022-09-13T15:51:48.873Z,1.20
2022-09-13T15:54:19.312Z,1.92
2022-09-13T15:56:49.479Z,1.50
2022-09-13T15:59:20.735Z,1.33
2022-09-13T16:01:49.896Z,1.23
2022-09-13T16:04:18.315Z,1.35
2022-09-13T16:06:46.699Z,1.60
2022-09-13T16:09:19.589Z,1.58
2022-09-13T16:14:18.304Z,1.63
2022-09-13T16:16:47.131Z,2.90
2022-09-13T16:19:17.583Z,3.20
2022-09-13T16:21:46.133Z,3.45
2022-09-13T16:24:14.615Z,4.38
2022-09-13T16:26:43.129Z,4.45
2022-09-13T16:29:12.746Z,4.28
2022-09-13T16:31:42.661Z,3.70
2022-09-13T16:34:10.796Z,3.33
2022-09-13T16:36:39.195Z,2.65
2022-09-13T16:39:07.563Z,2.22
2022-09-13T16:41:35.743Z,2.63
2022-09-13T16:44:05.154Z,2.58
2022-09-13T16:46:33.814Z,2.03
2022-09-13T16:49:03.605Z,2.10
2022-09-13T16:51:31.700Z,1.95
2022-09-13T16:54:00.337Z,1.83
2022-09-13T16:56:28.663Z,1.88
2022-09-13T16:58:57.397Z,2.10
2022-09-13T17:01:27.388Z,1.98
2022-09-13T17:03:56.973Z,1.98
2022-09-13T17:06:28.062Z,1.92
2022-09-13T17:09:00.361Z,2.30
2022-09-13T17:11:30.691Z,1.90
2022-09-13T17:13:58.997Z,2.28
2022-09-13T17:16:30.359Z,2.00
2022-09-13T17:18:59.940Z,2.45
2022-09-13T17:21:31.054Z,2.38
2022-09-13T17:23:59.154Z,1.95
2022-09-13T17:26:27.378Z,2.30
2022-09-13T17:28:55.489Z,2.10
2022-09-13T17:31:23.780Z,2.00
2022-09-13T17:33:53.243Z,2.10
2022-09-13T17:36:22.189Z,2.30
2022-09-13T17:38:56.311Z,2.08
2022-09-13T17:41:26.087Z,1.90
2022-09-13T17:43:55.240Z,2.05
2022-09-13T17:46:27.858Z,2.20
2022-09-13T17:48:58.051Z,2.17
2022-09-13T17:51:27.759Z,2.10
2022-09-13T17:54:00.277Z,2.30
2022-09-13T17:56:30.758Z,2.70
2022-09-13T17:59:07.997Z,2.50
2022-09-13T18:01:40.119Z,2.47
2022-09-13T18:04:08.750Z,2.30
2022-09-13T18:06:37.201Z,2.88
2022-09-13T18:09:07.384Z,2.85
2022-09-13T18:11:35.599Z,3.05
2022-09-13T18:14:03.810Z,3.45
2022-09-13T18:16:31.921Z,3.15
2022-09-13T18:19:01.595Z,3.28
2022-09-13T18:21:29.970Z,3.88
2022-09-13T18:24:01.605Z,3.40
2022-09-13T18:26:32.465Z,3.35
2022-09-13T18:29:02.944Z,2.75
2022-09-13T18:31:32.884Z,3.25
2022-09-13T18:34:03.047Z,3.38
2022-09-13T18:36:35.070Z,3.55
2022-09-13T18:39:05.022Z,3.10
2022-09-13T18:41:37.137Z,3.45
2022-09-13T18:44:05.985Z,3.60
2022-09-13T18:46:35.465Z,3.50
2022-09-13T18:49:04.523Z,3.50
2022-09-13T18:51:34.403Z,3.95
2022-09-13T18:54:03.064Z,4.22
2022-09-13T18:56:32.777Z,4.15
2022-09-13T18:59:04.305Z,4.22
2022-09-13T19:01:34.687Z,3.70
2022-09-13T19:04:05.396Z,4.13
2022-09-13T19:06:35.528Z,4.07
2022-09-13T19:09:05.073Z,4.07
2022-09-13T19:11:46.483Z,3.72
2022-09-13T19:14:18.837Z,3.50
2022-09-13T19:16:47.045Z,4.05
2022-09-13T19:19:15.752Z,4.30
2022-09-13T19:21:44.278Z,4.38
2022-09-13T19:24:18.116Z,4.40
2022-09-13T19:26:47.915Z,4.38
2022-09-13T19:29:19.771Z,4.93
2022-09-13T19:31:49.704Z,4.60
2022-09-13T19:34:18.948Z,4.57
2022-09-13T19:36:48.921Z,4.93
2022-09-13T19:39:17.495Z,4.63
2022-09-13T19:41:45.736Z,4.88
2022-09-13T19:44:14.708Z,5.13
2022-09-13T19:46:44.499Z,5.35
2022-09-13T19:49:15.294Z,5.97
2022-09-13T19:51:48.796Z,5.28
2022-09-13T19:54:20.554Z,4.93
2022-09-13T19:56:50.042Z,5.43
2022-09-13T19:59:20.801Z,5.70
2022-09-13T20:01:50.368Z,5.53
2022-09-13T20:04:20.198Z,5.97
2022-09-13T20:06:50.071Z,5.97
2022-09-13T20:09:20.537Z,5.82
2022-09-13T20:11:49.226Z,6.43
2022-09-13T20:14:19.251Z,6.03
2022-09-13T20:16:49.416Z,5.97
2022-09-13T20:19:39.843Z,5.32
2022-09-13T20:22:08.023Z,5.88
2022-09-13T20:24:36.504Z,6.07
2022-09-13T20:27:04.703Z,5.85
2022-09-13T20:29:32.885Z,6.38
2022-09-13T20:32:02.689Z,6.13
2022-09-13T20:34:31.310Z,5.72
2022-09-13T20:36:59.406Z,6.28
2022-09-13T20:39:27.653Z,6.97
2022-09-13T20:41:55.749Z,6.47
2022-09-13T20:44:24.050Z,6.80
2022-09-13T20:46:52.147Z,6.63
2022-09-13T20:49:22.253Z,6.07
2022-09-13T20:51:50.978Z,7.03
2022-09-13T20:54:19.513Z,6.60
2022-09-13T20:56:48.168Z,7.20
2022-09-13T20:59:16.246Z,7.55
2022-09-13T21:01:44.618Z,7.80
2022-09-13T21:04:12.897Z,7.15
2022-09-13T21:07:03.638Z,6.68
2022-09-13T21:09:32.555Z,7.13
2022-09-13T21:12:02.018Z,6.60
2022-09-13T21:14:33.973Z,6.88
2022-09-13T21:17:07.668Z,7.45
2022-09-13T21:19:35.941Z,7.35
2022-09-13T21:22:05.676Z,7.00
2022-09-13T21:24:33.925Z,7.40
2022-09-13T21:27:02.059Z,6.72
2022-09-13T21:29:30.171Z,6.72
2022-09-13T21:31:58.299Z,7.13
2022-09-13T21:34:27.363Z,6.63
2022-09-13T21:36:56.039Z,6.65
2022-09-13T21:39:25.692Z,8.00
2022-09-13T21:41:53.907Z,7.15
2022-09-13T21:44:22.103Z,7.53
2022-09-13T21:46:51.587Z,7.00
2022-09-13T21:49:20.197Z,7.55
2022-09-13T21:51:49.870Z,6.90
2022-09-13T21:54:19.883Z,7.22
2022-09-13T21:56:55.592Z,7.30
2022-09-13T21:59:24.539Z,6.80
2022-09-13T22:01:54.213Z,6.95
2022-09-13T22:04:24.282Z,7.93
2022-09-13T22:06:53.695Z,6.78
2022-09-13T22:09:23.590Z,7.18
2022-09-13T22:11:53.167Z,7.10
2022-09-13T22:14:22.640Z,7.90
2022-09-13T22:16:52.939Z,8.00
2022-09-13T22:19:24.517Z,7.78
2022-09-13T22:21:59.107Z,8.10
2022-09-13T22:24:29.355Z,7.32
2022-09-13T22:26:59.595Z,7.78
2022-09-13T22:29:27.963Z,7.90
2022-09-13T22:31:56.378Z,8.45
2022-09-13T22:34:26.059Z,9.52
2022-09-13T22:36:55.761Z,9.05
2022-09-13T22:39:24.330Z,8.95
2022-09-13T22:41:52.816Z,9.23
2022-09-13T22:44:22.476Z,8.95
2022-09-13T22:46:50.666Z,8.13
2022-09-13T22:49:20.236Z,8.00
2022-09-13T22:51:49.029Z,7.95
2022-09-13T22:54:19.286Z,8.40
2022-09-13T22:56:48.002Z,8.00
2022-09-13T22:59:17.790Z,8.50
2022-09-13T23:01:47.847Z,8.57
2022-09-13T23:04:16.255Z,8.30
2022-09-13T23:06:45.168Z,8.90
2022-09-13T23:09:15.856Z,8.05
2022-09-13T23:11:44.415Z,8.27
2022-09-13T23:14:14.589Z,7.53
2022-09-13T23:16:44.509Z,7.97
2022-09-13T23:19:14.956Z,8.40
2022-09-13T23:21:44.070Z,7.85
2022-09-13T23:24:14.120Z,8.40
2022-09-13T23:26:42.717Z,7.00
2022-09-13T23:29:14.907Z,6.40
2022-09-13T23:31:43.617Z,5.72
2022-09-13T23:34:14.311Z,6.15
2022-09-13T23:36:43.949Z,6.63
2022-09-13T23:39:16.325Z,6.45
2022-09-13T23:41:45.259Z,6.35
2022-09-13T23:44:14.005Z,6.25
2022-09-13T23:46:42.241Z,6.78
2022-09-13T23:49:10.544Z,6.57
2022-09-13T23:51:40.501Z,6.68
2022-09-13T23:54:09.479Z,6.65
2022-09-13T23:56:37.680Z,7.03
2022-09-13T23:59:06.615Z,7.50
